sensor_id;sensor_type;location;lat;lon;timestamp;P1;durP1;ratioP1;P2;durP2;ratioP2
71343;SDS011;59146;43.850;25.948;2023-07-31T04:50:41;11.20;;;9.55;;
71343;SDS011;59146;43.850;25.948;2023-07-31T04:53:07;12.35;;;10.40;;
71343;SDS011;59146;43.850;25.948;2023-07-31T04:55:32;13.50;;;10.10;;
71343;SDS011;59146;43.850;25.948;2023-07-31T04:57:58;13.10;;;10.68;;
71343;SDS011;59146;43.850;25.948;2023-07-31T05:00:24;12.95;;;10.48;;
71343;SDS011;59146;43.850;25.948;2023-07-31T05:02:49;11.85;;;10.63;;
71343;SDS011;59146;43.850;25.948;2023-07-31T05:05:15;11.77;;;10.60;;
71343;SDS011;59146;43.850;25.948;2023-07-31T05:07:40;13.68;;;11.32;;
71343;SDS011;59146;43.850;25.948;2023-07-31T05:10:06;19.50;;;11.45;;
71343;SDS011;59146;43.850;25.948;2023-07-31T05:12:31;16.38;;;11.02;;
71343;SDS011;59146;43.850;25.948;2023-07-31T05:14:57;11.55;;;9.75;;
71343;SDS011;59146;43.850;25.948;2023-07-31T05:17:22;11.98;;;9.85;;
71343;SDS011;59146;43.850;25.948;2023-07-31T05:19:48;10.57;;;9.57;;
71343;SDS011;59146;43.850;25.948;2023-07-31T05:22:13;10.38;;;9.30;;
71343;SDS011;59146;43.850;25.948;2023-07-31T05:24:38;10.18;;;8.63;;
71343;SDS011;59146;43.850;25.948;2023-07-31T05:27:04;14.43;;;9.30;;
71343;SDS011;59146;43.850;25.948;2023-07-31T05:29:29;11.18;;;10.07;;
71343;SDS011;59146;43.850;25.948;2023-07-31T05:31:55;11.05;;;9.95;;
71343;SDS011;59146;43.850;25.948;2023-07-31T05:34:20;11.07;;;9.60;;
71343;SDS011;59146;43.850;25.948;2023-07-31T05:36:46;14.98;;;9.13;;
71343;SDS011;59146;43.850;25.948;2023-07-31T05:39:11;10.00;;;9.00;;
71343;SDS011;59146;43.850;25.948;2023-07-31T05:41:37;12.20;;;9.02;;
71343;SDS011;59146;43.850;25.948;2023-07-31T05:44:02;10.75;;;9.75;;
71343;SDS011;59146;43.850;25.948;2023-07-31T05:46:28;11.57;;;9.63;;
71343;SDS011;59146;43.850;25.948;2023-07-31T05:48:53;10.13;;;9.10;;
71343;SDS011;59146;43.850;25.948;2023-07-31T05:51:19;13.38;;;8.80;;
71343;SDS011;59146;43.850;25.948;2023-07-31T05:53:44;9.65;;;8.82;;
71343;SDS011;59146;43.850;25.948;2023-07-31T05:56:10;10.63;;;9.52;;
71343;SDS011;59146;43.850;25.948;2023-07-31T05:58:35;8.98;;;8.00;;
71343;SDS011;59146;43.850;25.948;2023-07-31T06:01:00;14.00;;;9.43;;
71343;SDS011;59146;43.850;25.948;2023-07-31T06:03:26;16.30;;;9.13;;
71343;SDS011;59146;43.850;25.948;2023-07-31T06:05:51;11.52;;;8.70;;
71343;SDS011;59146;43.850;25.948;2023-07-31T06:08:17;13.75;;;8.38;;
71343;SDS011;59146;43.850;25.948;2023-07-31T06:10:42;10.45;;;8.35;;
71343;SDS011;59146;43.850;25.948;2023-07-31T06:13:08;10.90;;;8.32;;
71343;SDS011;59146;43.850;25.948;2023-07-31T06:15:33;9.65;;;8.70;;
71343;SDS011;59146;43.850;25.948;2023-07-31T06:17:58;12.05;;;8.68;;
71343;SDS011;59146;43.850;25.948;2023-07-31T06:20:26;9.40;;;8.48;;
71343;SDS011;59146;43.850;25.948;2023-07-31T06:22:52;9.50;;;8.38;;
71343;SDS011;59146;43.850;25.948;2023-07-31T06:25:17;9.98;;;8.45;;
71343;SDS011;59146;43.850;25.948;2023-07-31T06:27:43;10.50;;;9.20;;
71343;SDS011;59146;43.850;25.948;2023-07-31T06:30:08;10.63;;;9.15;;
71343;SDS011;59146;43.850;25.948;2023-07-31T06:32:34;14.32;;;9.93;;
71343;SDS011;59146;43.850;25.948;2023-07-31T06:35:01;12.15;;;10.90;;
71343;SDS011;59146;43.850;25.948;2023-07-31T06:37:26;13.52;;;12.10;;
71343;SDS011;59146;43.850;25.948;2023-07-31T06:39:51;13.50;;;11.85;;
71343;SDS011;59146;43.850;25.948;2023-07-31T06:42:17;14.77;;;11.68;;
71343;SDS011;59146;43.850;25.948;2023-07-31T06:44:42;19.77;;;12.60;;
71343;SDS011;59146;43.850;25.948;2023-07-31T06:47:07;13.95;;;12.38;;
71343;SDS011;59146;43.850;25.948;2023-07-31T06:49:33;11.60;;;10.43;;
71343;SDS011;59146;43.850;25.948;2023-07-31T06:51:59;11.93;;;10.77;;
71343;SDS011;59146;43.850;25.948;2023-07-31T06:54:24;16.48;;;10.05;;
71343;SDS011;59146;43.850;25.948;2023-07-31T06:56:49;16.30;;;10.43;;
71343;SDS011;59146;43.850;25.948;2023-07-31T06:59:15;10.68;;;9.57;;
71343;SDS011;59146;43.850;25.948;2023-07-31T07:01:40;11.80;;;10.60;;
71343;SDS011;59146;43.850;25.948;2023-07-31T07:04:05;16.77;;;10.43;;
71343;SDS011;59146;43.850;25.948;2023-07-31T07:06:31;11.15;;;9.98;;
71343;SDS011;59146;43.850;25.948;2023-07-31T07:08:56;11.38;;;9.85;;
71343;SDS011;59146;43.850;25.948;2023-07-31T07:11:22;8.90;;;8.00;;
71343;SDS011;59146;43.850;25.948;2023-07-31T07:13:47;9.15;;;8.35;;
71343;SDS011;59146;43.850;25.948;2023-07-31T07:16:12;10.20;;;9.13;;
71343;SDS011;59146;43.850;25.948;2023-07-31T07:18:38;9.90;;;9.00;;
71343;SDS011;59146;43.850;25.948;2023-07-31T07:21:03;12.48;;;9.25;;
71343;SDS011;59146;43.850;25.948;2023-07-31T07:23:28;10.00;;;9.10;;
71343;SDS011;59146;43.850;25.948;2023-07-31T07:25:54;11.05;;;7.95;;
71343;SDS011;59146;43.850;25.948;2023-07-31T07:28:19;9.85;;;8.35;;
71343;SDS011;59146;43.850;25.948;2023-07-31T07:30:45;9.10;;;8.18;;
71343;SDS011;59146;43.850;25.948;2023-07-31T07:33:10;11.73;;;9.85;;
71343;SDS011;59146;43.850;25.948;2023-07-31T07:35:37;10.95;;;9.25;;
71343;SDS011;59146;43.850;25.948;2023-07-31T07:38:02;10.48;;;9.40;;
71343;SDS011;59146;43.850;25.948;2023-07-31T07:40:28;10.00;;;9.10;;
71343;SDS011;59146;43.850;25.948;2023-07-31T07:42:54;10.80;;;9.80;;
71343;SDS011;59146;43.850;25.948;2023-07-31T07:45:19;10.45;;;9.45;;
71343;SDS011;59146;43.850;25.948;2023-07-31T07:47:44;10.98;;;9.82;;
71343;SDS011;59146;43.850;25.948;2023-07-31T07:50:10;10.35;;;9.43;;
71343;SDS011;59146;43.850;25.948;2023-07-31T07:52:35;12.30;;;9.98;;
71343;SDS011;59146;43.850;25.948;2023-07-31T07:55:01;11.10;;;10.00;;
71343;SDS011;59146;43.850;25.948;2023-07-31T07:57:26;10.60;;;9.55;;
71343;SDS011;59146;43.850;25.948;2023-07-31T07:59:52;9.38;;;8.52;;
71343;SDS011;59146;43.850;25.948;2023-07-31T08:02:17;11.02;;;8.93;;
71343;SDS011;59146;43.850;25.948;2023-07-31T08:04:43;9.48;;;8.68;;
71343;SDS011;59146;43.850;25.948;2023-07-31T08:07:10;14.38;;;9.02;;
71343;SDS011;59146;43.850;25.948;2023-07-31T08:09:39;10.65;;;8.82;;
71343;SDS011;59146;43.850;25.948;2023-07-31T08:12:06;10.25;;;9.25;;
71343;SDS011;59146;43.850;25.948;2023-07-31T08:14:32;11.38;;;9.27;;
71343;SDS011;59146;43.850;25.948;2023-07-31T08:16:57;8.95;;;8.02;;
71343;SDS011;59146;43.850;25.948;2023-07-31T08:19:23;8.38;;;7.57;;
71343;SDS011;59146;43.850;25.948;2023-07-31T08:21:49;8.65;;;7.90;;
71343;SDS011;59146;43.850;25.948;2023-07-31T08:24:14;18.90;;;8.52;;
71343;SDS011;59146;43.850;25.948;2023-07-31T08:26:40;11.07;;;8.20;;
71343;SDS011;59146;43.850;25.948;2023-07-31T08:29:05;22.58;;;9.75;;
71343;SDS011;59146;43.850;25.948;2023-07-31T08:31:31;20.17;;;8.65;;
71343;SDS011;59146;43.850;25.948;2023-07-31T08:33:56;9.25;;;8.23;;
71343;SDS011;59146;43.850;25.948;2023-07-31T08:36:21;13.93;;;8.25;;
71343;SDS011;59146;43.850;25.948;2023-07-31T08:38:47;9.65;;;8.30;;
71343;SDS011;59146;43.850;25.948;2023-07-31T08:41:13;9.35;;;7.95;;
71343;SDS011;59146;43.850;25.948;2023-07-31T08:43:38;10.60;;;7.57;;
71343;SDS011;59146;43.850;25.948;2023-07-31T08:46:04;9.10;;;8.20;;
71343;SDS011;59146;43.850;25.948;2023-07-31T08:48:31;11.07;;;7.88;;
71343;SDS011;59146;43.850;25.948;2023-07-31T08:50:57;10.80;;;7.70;;
71343;SDS011;59146;43.850;25.948;2023-07-31T08:53:22;7.38;;;6.65;;
71343;SDS011;59146;43.850;25.948;2023-07-31T08:55:48;11.80;;;7.70;;
71343;SDS011;59146;43.850;25.948;2023-07-31T08:58:14;8.18;;;7.38;;
71343;SDS011;59146;43.850;25.948;2023-07-31T09:00:42;18.33;;;8.32;;
71343;SDS011;59146;43.850;25.948;2023-07-31T09:03:17;13.60;;;7.40;;
71343;SDS011;59146;43.850;25.948;2023-07-31T09:05:44;9.27;;;7.82;;
71343;SDS011;59146;43.850;25.948;2023-07-31T09:08:15;11.95;;;7.78;;
71343;SDS011;59146;43.850;25.948;2023-07-31T09:10:50;7.93;;;7.13;;
71343;SDS011;59146;43.850;25.948;2023-07-31T09:13:16;8.45;;;7.55;;
71343;SDS011;59146;43.850;25.948;2023-07-31T09:15:42;14.25;;;8.45;;
71343;SDS011;59146;43.850;25.948;2023-07-31T09:18:09;9.40;;;7.32;;
71343;SDS011;59146;43.850;25.948;2023-07-31T09:20:35;8.52;;;6.95;;
71343;SDS011;59146;43.850;25.948;2023-07-31T09:25:36;21.20;;;8.50;;
71343;SDS011;59146;43.850;25.948;2023-07-31T09:28:04;10.77;;;7.10;;
71343;SDS011;59146;43.850;25.948;2023-07-31T09:30:43;9.60;;;6.88;;
71343;SDS011;59146;43.850;25.948;2023-07-31T09:33:18;10.40;;;7.00;;
71343;SDS011;59146;43.850;25.948;2023-07-31T09:35:44;8.77;;;6.75;;
71343;SDS011;59146;43.850;25.948;2023-07-31T09:38:11;9.30;;;8.20;;
71343;SDS011;59146;43.850;25.948;2023-07-31T09:40:38;9.10;;;7.82;;
71343;SDS011;59146;43.850;25.948;2023-07-31T09:43:08;10.45;;;8.88;;
71343;SDS011;59146;43.850;25.948;2023-07-31T09:45:36;9.40;;;8.35;;
71343;SDS011;59146;43.850;25.948;2023-07-31T09:48:10;8.73;;;7.85;;
71343;SDS011;59146;43.850;25.948;2023-07-31T09:50:38;9.85;;;8.93;;
71343;SDS011;59146;43.850;25.948;2023-07-31T09:53:04;12.02;;;8.63;;
71343;SDS011;59146;43.850;25.948;2023-07-31T09:55:31;12.82;;;9.10;;
71343;SDS011;59146;43.850;25.948;2023-07-31T09:57:57;9.68;;;8.73;;
71343;SDS011;59146;43.850;25.948;2023-07-31T10:00:23;9.90;;;8.95;;
71343;SDS011;59146;43.850;25.948;2023-07-31T10:02:52;9.63;;;8.55;;
71343;SDS011;59146;43.850;25.948;2023-07-31T10:05:18;10.68;;;8.95;;
71343;SDS011;59146;43.850;25.948;2023-07-31T10:07:52;17.30;;;9.57;;
71343;SDS011;59146;43.850;25.948;2023-07-31T10:10:20;10.35;;;8.82;;
71343;SDS011;59146;43.850;25.948;2023-07-31T10:12:47;15.20;;;9.00;;
71343;SDS011;59146;43.850;25.948;2023-07-31T10:15:14;16.60;;;10.20;;
71343;SDS011;59146;43.850;25.948;2023-07-31T10:17:40;10.20;;;9.20;;
71343;SDS011;59146;43.850;25.948;2023-07-31T10:20:06;16.05;;;10.23;;
71343;SDS011;59146;43.850;25.948;2023-07-31T10:22:32;19.63;;;11.00;;
71343;SDS011;59146;43.850;25.948;2023-07-31T10:24:59;19.20;;;11.50;;
71343;SDS011;59146;43.850;25.948;2023-07-31T10:27:25;26.65;;;13.95;;
71343;SDS011;59146;43.850;25.948;2023-07-31T10:29:52;24.00;;;13.88;;
71343;SDS011;59146;43.850;25.948;2023-07-31T10:32:19;13.43;;;11.63;;
71343;SDS011;59146;43.850;25.948;2023-07-31T10:34:46;12.63;;;11.07;;
71343;SDS011;59146;43.850;25.948;2023-07-31T10:37:27;14.48;;;11.75;;
71343;SDS011;59146;43.850;25.948;2023-07-31T10:40:01;19.10;;;10.55;;
71343;SDS011;59146;43.850;25.948;2023-07-31T10:44:57;16.73;;;12.82;;
71343;SDS011;59146;43.850;25.948;2023-07-31T10:47:24;15.02;;;11.00;;
71343;SDS011;59146;43.850;25.948;2023-07-31T10:49:49;17.52;;;10.85;;
71343;SDS011;59146;43.850;25.948;2023-07-31T10:52:19;12.63;;;11.38;;
71343;SDS011;59146;43.850;25.948;2023-07-31T10:55:14;14.63;;;10.82;;
71343;SDS011;59146;43.850;25.948;2023-07-31T10:58:05;18.13;;;11.23;;
71343;SDS011;59146;43.850;25.948;2023-07-31T11:00:32;16.25;;;10.90;;
71343;SDS011;59146;43.850;25.948;2023-07-31T11:03:01;12.57;;;10.20;;
71343;SDS011;59146;43.850;25.948;2023-07-31T11:08:27;16.83;;;11.60;;
71343;SDS011;59146;43.850;25.948;2023-07-31T11:15:54;15.18;;;9.90;;
71343;SDS011;59146;43.850;25.948;2023-07-31T11:18:19;13.10;;;10.30;;
71343;SDS011;59146;43.850;25.948;2023-07-31T11:20:45;14.30;;;10.07;;
71343;SDS011;59146;43.850;25.948;2023-07-31T11:23:10;16.73;;;10.60;;
71343;SDS011;59146;43.850;25.948;2023-07-31T11:25:37;12.57;;;10.40;;
71343;SDS011;59146;43.850;25.948;2023-07-31T11:28:07;13.80;;;10.60;;
71343;SDS011;59146;43.850;25.948;2023-07-31T11:30:34;10.48;;;8.98;;
71343;SDS011;59146;43.850;25.948;2023-07-31T11:33:01;10.95;;;9.85;;
71343;SDS011;59146;43.850;25.948;2023-07-31T11:38:00;10.80;;;9.50;;
71343;SDS011;59146;43.850;25.948;2023-07-31T11:40:27;9.80;;;8.80;;
71343;SDS011;59146;43.850;25.948;2023-07-31T11:42:58;9.63;;;8.18;;
71343;SDS011;59146;43.850;25.948;2023-07-31T11:45:28;16.00;;;8.90;;
71343;SDS011;59146;43.850;25.948;2023-07-31T11:47:55;13.18;;;8.77;;
71343;SDS011;59146;43.850;25.948;2023-07-31T11:50:22;11.50;;;9.75;;
71343;SDS011;59146;43.850;25.948;2023-07-31T11:52:51;10.20;;;9.13;;
71343;SDS011;59146;43.850;25.948;2023-07-31T11:55:20;10.33;;;9.03;;
71343;SDS011;59146;43.850;25.948;2023-07-31T11:57:45;9.82;;;8.85;;
71343;SDS011;59146;43.850;25.948;2023-07-31T12:00:12;9.68;;;8.77;;
71343;SDS011;59146;43.850;25.948;2023-07-31T12:02:39;10.90;;;9.80;;
71343;SDS011;59146;43.850;25.948;2023-07-31T12:05:06;10.25;;;8.88;;
71343;SDS011;59146;43.850;25.948;2023-07-31T12:07:51;11.13;;;10.00;;
71343;SDS011;59146;43.850;25.948;2023-07-31T12:10:51;9.98;;;8.98;;
71343;SDS011;59146;43.850;25.948;2023-07-31T12:13:11;10.55;;;8.48;;
71343;SDS011;59146;43.850;25.948;2023-07-31T12:15:44;10.18;;;9.05;;
71343;SDS011;59146;43.850;25.948;2023-07-31T12:18:11;11.43;;;9.77;;
71343;SDS011;59146;43.850;25.948;2023-07-31T12:20:47;10.13;;;9.13;;
71343;SDS011;59146;43.850;25.948;2023-07-31T12:23:17;9.50;;;8.05;;
71343;SDS011;59146;43.850;25.948;2023-07-31T12:25:59;8.98;;;8.07;;
71343;SDS011;59146;43.850;25.948;2023-07-31T12:28:29;8.25;;;7.45;;
71343;SDS011;59146;43.850;25.948;2023-07-31T12:30:59;9.20;;;8.40;;
71343;SDS011;59146;43.850;25.948;2023-07-31T12:33:30;10.63;;;7.30;;
71343;SDS011;59146;43.850;25.948;2023-07-31T12:35:57;9.23;;;7.10;;
71343;SDS011;59146;43.850;25.948;2023-07-31T12:38:23;8.35;;;7.47;;
71343;SDS011;59146;43.850;25.948;2023-07-31T12:40:48;8.13;;;7.28;;
71343;SDS011;59146;43.850;25.948;2023-07-31T12:43:13;8.20;;;7.40;;
71343;SDS011;59146;43.850;25.948;2023-07-31T12:45:39;8.23;;;7.43;;
71343;SDS011;59146;43.850;25.948;2023-07-31T12:48:04;12.45;;;7.53;;
71343;SDS011;59146;43.850;25.948;2023-07-31T12:50:30;8.52;;;7.72;;
71343;SDS011;59146;43.850;25.948;2023-07-31T12:52:56;7.32;;;6.63;;
71343;SDS011;59146;43.850;25.948;2023-07-31T12:55:22;10.30;;;7.43;;
71343;SDS011;59146;43.850;25.948;2023-07-31T12:57:48;6.95;;;6.10;;
71343;SDS011;59146;43.850;25.948;2023-07-31T13:00:14;8.63;;;6.68;;
71343;SDS011;59146;43.850;25.948;2023-07-31T13:02:39;7.72;;;5.95;;
71343;SDS011;59146;43.850;25.948;2023-07-31T13:05:05;8.15;;;6.55;;
71343;SDS011;59146;43.850;25.948;2023-07-31T13:07:31;8.55;;;5.80;;
71343;SDS011;59146;43.850;25.948;2023-07-31T13:09:56;8.30;;;5.47;;
71343;SDS011;59146;43.850;25.948;2023-07-31T13:12:22;7.35;;;6.28;;
71343;SDS011;59146;43.850;25.948;2023-07-31T13:14:47;7.80;;;6.38;;
71343;SDS011;59146;43.850;25.948;2023-07-31T13:17:12;18.13;;;7.72;;
71343;SDS011;59146;43.850;25.948;2023-07-31T13:19:38;13.48;;;6.18;;
71343;SDS011;59146;43.850;25.948;2023-07-31T13:22:03;12.73;;;6.97;;
71343;SDS011;59146;43.850;25.948;2023-07-31T13:24:29;12.52;;;6.97;;
71343;SDS011;59146;43.850;25.948;2023-07-31T13:26:55;6.18;;;5.57;;
71343;SDS011;59146;43.850;25.948;2023-07-31T13:29:24;6.70;;;5.30;;
71343;SDS011;59146;43.850;25.948;2023-07-31T13:31:49;5.50;;;5.00;;
71343;SDS011;59146;43.850;25.948;2023-07-31T13:34:14;6.78;;;5.32;;
71343;SDS011;59146;43.850;25.948;2023-07-31T13:36:40;7.50;;;5.70;;
71343;SDS011;59146;43.850;25.948;2023-07-31T13:39:06;10.18;;;5.65;;
71343;SDS011;59146;43.850;25.948;2023-07-31T13:41:32;7.40;;;5.75;;
71343;SDS011;59146;43.850;25.948;2023-07-31T13:43:57;6.68;;;5.72;;
71343;SDS011;59146;43.850;25.948;2023-07-31T13:46:23;14.85;;;7.13;;
71343;SDS011;59146;43.850;25.948;2023-07-31T13:48:48;17.98;;;8.25;;
71343;SDS011;59146;43.850;25.948;2023-07-31T13:51:14;18.77;;;7.70;;
71343;SDS011;59146;43.850;25.948;2023-07-31T13:53:39;13.15;;;6.65;;
71343;SDS011;59146;43.850;25.948;2023-07-31T13:56:05;24.70;;;9.27;;
71343;SDS011;59146;43.850;25.948;2023-07-31T13:58:30;13.85;;;7.72;;
71343;SDS011;59146;43.850;25.948;2023-07-31T14:00:56;19.10;;;9.90;;
71343;SDS011;59146;43.850;25.948;2023-07-31T14:03:21;13.40;;;7.15;;
71343;SDS011;59146;43.850;25.948;2023-07-31T14:05:47;16.65;;;7.45;;
71343;SDS011;59146;43.850;25.948;2023-07-31T14:08:12;9.98;;;6.70;;
71343;SDS011;59146;43.850;25.948;2023-07-31T14:10:37;12.48;;;6.75;;
71343;SDS011;59146;43.850;25.948;2023-07-31T14:13:03;9.43;;;7.22;;
71343;SDS011;59146;43.850;25.948;2023-07-31T14:15:28;10.70;;;7.60;;
71343;SDS011;59146;43.850;25.948;2023-07-31T14:17:54;8.88;;;6.72;;
71343;SDS011;59146;43.850;25.948;2023-07-31T14:20:19;10.18;;;6.32;;
71343;SDS011;59146;43.850;25.948;2023-07-31T14:22:44;10.77;;;7.63;;
71343;SDS011;59146;43.850;25.948;2023-07-31T14:25:10;13.27;;;7.18;;
71343;SDS011;59146;43.850;25.948;2023-07-31T14:27:35;10.77;;;5.75;;
71343;SDS011;59146;43.850;25.948;2023-07-31T14:30:01;7.13;;;5.85;;
71343;SDS011;59146;43.850;25.948;2023-07-31T14:32:27;8.15;;;7.25;;
71343;SDS011;59146;43.850;25.948;2023-07-31T14:34:53;9.10;;;6.70;;
71343;SDS011;59146;43.850;25.948;2023-07-31T14:37:19;7.88;;;7.18;;
71343;SDS011;59146;43.850;25.948;2023-07-31T14:39:45;12.02;;;8.95;;
71343;SDS011;59146;43.850;25.948;2023-07-31T14:42:10;9.55;;;8.55;;
71343;SDS011;59146;43.850;25.948;2023-07-31T14:44:35;13.23;;;7.57;;
71343;SDS011;59146;43.850;25.948;2023-07-31T14:47:01;12.95;;;7.15;;
71343;SDS011;59146;43.850;25.948;2023-07-31T14:49:26;8.00;;;7.20;;
71343;SDS011;59146;43.850;25.948;2023-07-31T14:51:54;9.50;;;6.32;;
71343;SDS011;59146;43.850;25.948;2023-07-31T14:54:20;7.90;;;7.13;;
71343;SDS011;59146;43.850;25.948;2023-07-31T14:56:45;6.03;;;5.45;;
71343;SDS011;59146;43.850;25.948;2023-07-31T14:59:11;15.27;;;6.55;;
71343;SDS011;59146;43.850;25.948;2023-07-31T15:01:36;7.45;;;6.68;;
71343;SDS011;59146;43.850;25.948;2023-07-31T15:04:02;7.43;;;6.70;;
71343;SDS011;59146;43.850;25.948;2023-07-31T15:06:28;15.93;;;12.27;;
71343;SDS011;59146;43.850;25.948;2023-07-31T15:08:53;8.95;;;7.78;;
71343;SDS011;59146;43.850;25.948;2023-07-31T15:11:19;9.02;;;7.10;;
71343;SDS011;59146;43.850;25.948;2023-07-31T15:13:44;7.85;;;7.10;;
71343;SDS011;59146;43.850;25.948;2023-07-31T15:16:10;9.65;;;7.38;;
71343;SDS011;59146;43.850;25.948;2023-07-31T15:18:35;7.50;;;6.68;;
71343;SDS011;59146;43.850;25.948;2023-07-31T15:21:01;8.77;;;7.18;;
71343;SDS011;59146;43.850;25.948;2023-07-31T15:23:26;7.55;;;6.85;;
71343;SDS011;59146;43.850;25.948;2023-07-31T15:25:53;12.15;;;7.40;;
71343;SDS011;59146;43.850;25.948;2023-07-31T15:28:18;24.25;;;8.90;;
71343;SDS011;59146;43.850;25.948;2023-07-31T15:30:44;22.60;;;9.45;;
71343;SDS011;59146;43.850;25.948;2023-07-31T15:33:10;23.38;;;9.95;;
71343;SDS011;59146;43.850;25.948;2023-07-31T15:35:35;22.60;;;10.38;;
71343;SDS011;59146;43.850;25.948;2023-07-31T15:38:00;16.10;;;7.85;;
71343;SDS011;59146;43.850;25.948;2023-07-31T15:40:26;27.63;;;9.23;;
71343;SDS011;59146;43.850;25.948;2023-07-31T15:42:51;23.23;;;9.38;;
71343;SDS011;59146;43.850;25.948;2023-07-31T15:45:17;16.65;;;7.75;;
71343;SDS011;59146;43.850;25.948;2023-07-31T15:47:42;11.80;;;6.10;;
71343;SDS011;59146;43.850;25.948;2023-07-31T15:50:08;11.85;;;6.38;;
71343;SDS011;59146;43.850;25.948;2023-07-31T15:52:33;10.98;;;5.78;;
71343;SDS011;59146;43.850;25.948;2023-07-31T15:54:59;8.77;;;5.38;;
71343;SDS011;59146;43.850;25.948;2023-07-31T15:57:24;10.65;;;6.20;;
71343;SDS011;59146;43.850;25.948;2023-07-31T15:59:50;5.78;;;5.15;;
71343;SDS011;59146;43.850;25.948;2023-07-31T16:02:15;11.25;;;5.15;;
71343;SDS011;59146;43.850;25.948;2023-07-31T16:04:40;5.20;;;4.68;;
71343;SDS011;59146;43.850;25.948;2023-07-31T16:07:06;5.93;;;4.47;;
71343;SDS011;59146;43.850;25.948;2023-07-31T16:09:31;10.68;;;4.95;;
71343;SDS011;59146;43.850;25.948;2023-07-31T16:11:57;5.57;;;4.97;;
71343;SDS011;59146;43.850;25.948;2023-07-31T16:14:22;7.97;;;5.15;;
71343;SDS011;59146;43.850;25.948;2023-07-31T16:16:48;9.38;;;4.38;;
71343;SDS011;59146;43.850;25.948;2023-07-31T16:19:13;6.03;;;5.03;;
71343;SDS011;59146;43.850;25.948;2023-07-31T16:21:39;13.82;;;5.75;;
71343;SDS011;59146;43.850;25.948;2023-07-31T16:24:04;6.15;;;4.22;;
71343;SDS011;59146;43.850;25.948;2023-07-31T16:26:30;5.25;;;4.75;;
71343;SDS011;59146;43.850;25.948;2023-07-31T16:28:56;7.18;;;5.22;;
71343;SDS011;59146;43.850;25.948;2023-07-31T16:31:21;4.88;;;4.45;;
71343;SDS011;59146;43.850;25.948;2023-07-31T16:33:47;8.25;;;4.90;;
71343;SDS011;59146;43.850;25.948;2023-07-31T16:36:12;14.02;;;5.30;;
71343;SDS011;59146;43.850;25.948;2023-07-31T16:38:38;5.70;;;4.63;;
71343;SDS011;59146;43.850;25.948;2023-07-31T16:41:04;5.53;;;4.50;;
71343;SDS011;59146;43.850;25.948;2023-07-31T16:43:30;7.10;;;4.82;;
71343;SDS011;59146;43.850;25.948;2023-07-31T16:45:56;7.75;;;4.78;;
71343;SDS011;59146;43.850;25.948;2023-07-31T16:48:21;8.48;;;5.43;;
71343;SDS011;59146;43.850;25.948;2023-07-31T16:50:47;5.63;;;4.75;;
71343;SDS011;59146;43.850;25.948;2023-07-31T16:53:12;8.85;;;5.03;;
71343;SDS011;59146;43.850;25.948;2023-07-31T16:55:38;7.32;;;5.03;;
71343;SDS011;59146;43.850;25.948;2023-07-31T16:58:03;8.15;;;5.03;;
71343;SDS011;59146;43.850;25.948;2023-07-31T17:00:28;9.27;;;4.93;;
71343;SDS011;59146;43.850;25.948;2023-07-31T17:02:54;8.40;;;5.18;;
71343;SDS011;59146;43.850;25.948;2023-07-31T17:05:20;9.05;;;5.45;;
71343;SDS011;59146;43.850;25.948;2023-07-31T17:07:45;8.43;;;5.53;;
71343;SDS011;59146;43.850;25.948;2023-07-31T17:10:11;11.50;;;5.32;;
71343;SDS011;59146;43.850;25.948;2023-07-31T17:12:36;6.85;;;5.22;;
71343;SDS011;59146;43.850;25.948;2023-07-31T17:15:02;9.32;;;5.15;;
71343;SDS011;59146;43.850;25.948;2023-07-31T17:17:27;8.80;;;5.32;;
71343;SDS011;59146;43.850;25.948;2023-07-31T17:19:53;8.10;;;5.13;;
71343;SDS011;59146;43.850;25.948;2023-07-31T17:22:18;7.97;;;4.78;;
71343;SDS011;59146;43.850;25.948;2023-07-31T17:24:44;6.18;;;4.85;;
71343;SDS011;59146;43.850;25.948;2023-07-31T17:27:09;10.20;;;5.10;;
71343;SDS011;59146;43.850;25.948;2023-07-31T17:29:35;7.70;;;5.60;;
71343;SDS011;59146;43.850;25.948;2023-07-31T17:32:00;11.00;;;5.10;;
71343;SDS011;59146;43.850;25.948;2023-07-31T17:34:25;9.07;;;5.38;;
71343;SDS011;59146;43.850;25.948;2023-07-31T17:36:51;13.10;;;5.57;;
71343;SDS011;59146;43.850;25.948;2023-07-31T17:39:16;9.18;;;5.90;;
71343;SDS011;59146;43.850;25.948;2023-07-31T17:41:42;7.72;;;5.10;;
71343;SDS011;59146;43.850;25.948;2023-07-31T17:44:08;7.88;;;5.75;;
71343;SDS011;59146;43.850;25.948;2023-07-31T17:46:33;8.55;;;5.22;;
71343;SDS011;59146;43.850;25.948;2023-07-31T17:48:59;8.73;;;5.75;;
71343;SDS011;59146;43.850;25.948;2023-07-31T17:51:24;7.80;;;5.85;;
71343;SDS011;59146;43.850;25.948;2023-07-31T17:53:50;6.57;;;5.97;;
71343;SDS011;59146;43.850;25.948;2023-07-31T17:56:15;6.00;;;5.20;;
71343;SDS011;59146;43.850;25.948;2023-07-31T17:58:40;7.60;;;5.85;;
71343;SDS011;59146;43.850;25.948;2023-07-31T18:01:06;9.43;;;7.20;;
71343;SDS011;59146;43.850;25.948;2023-07-31T18:03:31;10.25;;;6.13;;
71343;SDS011;59146;43.850;25.948;2023-07-31T18:05:57;23.65;;;13.85;;
71343;SDS011;59146;43.850;25.948;2023-07-31T18:08:22;18.13;;;15.88;;
71343;SDS011;59146;43.850;25.948;2023-07-31T18:10:48;18.15;;;12.65;;
71343;SDS011;59146;43.850;25.948;2023-07-31T18:13:13;13.70;;;9.90;;
71343;SDS011;59146;43.850;25.948;2023-07-31T18:15:45;17.13;;;11.38;;
71343;SDS011;59146;43.850;25.948;2023-07-31T18:18:12;16.15;;;9.80;;
71343;SDS011;59146;43.850;25.948;2023-07-31T18:20:37;9.50;;;7.50;;
71343;SDS011;59146;43.850;25.948;2023-07-31T18:23:03;9.07;;;6.53;;
71343;SDS011;59146;43.850;25.948;2023-07-31T18:25:28;9.13;;;7.18;;
71343;SDS011;59146;43.850;25.948;2023-07-31T18:27:54;7.97;;;5.93;;
71343;SDS011;59146;43.850;25.948;2023-07-31T18:30:19;13.27;;;7.05;;
71343;SDS011;59146;43.850;25.948;2023-07-31T18:32:45;12.07;;;6.93;;
71343;SDS011;59146;43.850;25.948;2023-07-31T18:35:10;8.27;;;6.65;;
71343;SDS011;59146;43.850;25.948;2023-07-31T18:37:36;7.38;;;6.68;;
71343;SDS011;59146;43.850;25.948;2023-07-31T18:40:01;11.30;;;7.97;;
71343;SDS011;59146;43.850;25.948;2023-07-31T18:42:28;12.45;;;7.60;;
71343;SDS011;59146;43.850;25.948;2023-07-31T18:44:53;15.55;;;7.30;;
71343;SDS011;59146;43.850;25.948;2023-07-31T18:47:19;9.07;;;7.03;;
71343;SDS011;59146;43.850;25.948;2023-07-31T18:49:44;10.77;;;8.23;;
71343;SDS011;59146;43.850;25.948;2023-07-31T18:52:09;12.05;;;6.80;;
71343;SDS011;59146;43.850;25.948;2023-07-31T18:54:35;14.80;;;7.80;;
71343;SDS011;59146;43.850;25.948;2023-07-31T18:57:00;12.90;;;8.50;;
71343;SDS011;59146;43.850;25.948;2023-07-31T18:59:26;20.08;;;7.25;;
71343;SDS011;59146;43.850;25.948;2023-07-31T19:01:51;8.23;;;6.85;;
71343;SDS011;59146;43.850;25.948;2023-07-31T19:04:17;10.95;;;6.50;;
71343;SDS011;59146;43.850;25.948;2023-07-31T19:06:42;9.60;;;6.90;;
71343;SDS011;59146;43.850;25.948;2023-07-31T19:09:10;11.63;;;6.75;;
71343;SDS011;59146;43.850;25.948;2023-07-31T19:11:37;12.00;;;6.55;;
71343;SDS011;59146;43.850;25.948;2023-07-31T19:14:04;9.48;;;7.13;;
71343;SDS011;59146;43.850;25.948;2023-07-31T19:16:29;9.80;;;7.05;;
71343;SDS011;59146;43.850;25.948;2023-07-31T19:18:55;11.80;;;6.20;;
71343;SDS011;59146;43.850;25.948;2023-07-31T19:21:20;10.70;;;7.30;;
71343;SDS011;59146;43.850;25.948;2023-07-31T19:23:46;13.20;;;8.63;;
71343;SDS011;59146;43.850;25.948;2023-07-31T19:26:11;10.68;;;8.88;;